Time;durP1;ratioP1;P1;durP2;ratioP2;P2;SDS_P1;SDS_P2;PMS_P1;PMS_P2;Temp;Humidity;BMP_temperature;BMP_pressure;BME280_temperature;BME280_humidity;BME280_pressure;Samples;Min_cycle;Max_cycle;Signal;HPM_P1;HPM_P2
2021/10/11 00:00:44;;;;;;;9.07;2.80;;;;;;;;;;4976686;28;20060;-90
2021/10/11 00:03:10;;;;;;;7.88;2.22;;;;;;;;;;4960272;28;20042;-90
2021/10/11 00:05:39;;;;;;;8.63;2.45;;;;;;;;;;4959970;28;20042;-91
2021/10/11 00:08:06;;;;;;;10.98;2.42;;;;;;;;;;4963912;28;20049;-90
2021/10/11 00:10:32;;;;;;;6.50;2.10;;;;;;;;;;4976697;28;20049;-91
2021/10/11 00:12:58;;;;;;;8.00;2.30;;;;;;;;;;4961032;28;20129;-93
2021/10/11 00:15:27;;;;;;;9.38;2.30;;;;;;;;;;4961172;28;20049;-90
2021/10/11 00:17:54;;;;;;;9.63;2.20;;;;;;;;;;4960115;28;20483;-91
2021/10/11 00:20:21;;;;;;;8.13;2.22;;;;;;;;;;4976130;28;20137;-91
2021/10/11 00:22:47;;;;;;;7.82;2.03;;;;;;;;;;4960709;28;20133;-90
2021/10/11 00:25:13;;;;;;;10.75;1.90;;;;;;;;;;4960152;28;20046;-91
2021/10/11 00:27:39;;;;;;;11.57;2.50;;;;;;;;;;4960171;28;20054;-91
2021/10/11 00:30:06;;;;;;;7.97;1.88;;;;;;;;;;4959794;28;20049;-91
2021/10/11 00:32:33;;;;;;;8.55;1.90;;;;;;;;;;4960005;28;20065;-91
2021/10/11 00:34:59;;;;;;;9.35;2.10;;;;;;;;;;4959362;28;20046;-92
2021/10/11 00:37:27;;;;;;;10.65;2.28;;;;;;;;;;4976364;28;20053;-90
2021/10/11 00:39:53;;;;;;;11.13;2.08;;;;;;;;;;4959828;28;20147;-91
2021/10/11 00:42:20;;;;;;;8.18;2.40;;;;;;;;;;4976023;28;20034;-92
2021/10/11 00:44:46;;;;;;;6.72;1.55;;;;;;;;;;4959598;28;20056;-91
2021/10/11 00:47:12;;;;;;;10.93;2.50;;;;;;;;;;4975239;28;20169;-91
2021/10/11 00:49:40;;;;;;;9.38;2.03;;;;;;;;;;4959658;28;20487;-90
2021/10/11 00:52:07;;;;;;;10.05;2.30;;;;;;;;;;4975447;28;20043;-91
2021/10/11 00:54:33;;;;;;;11.60;2.55;;;;;;;;;;4960175;28;20135;-90
2021/10/11 00:56:59;;;;;;;7.75;1.80;;;;;;;;;;4959356;28;20069;-92
2021/10/11 00:59:26;;;;;;;9.98;1.83;;;;;;;;;;4959583;28;20062;-91
2021/10/11 01:01:52;;;;;;;11.63;2.30;;;;;;;;;;4960321;28;20141;-91
2021/10/11 01:04:18;;;;;;;7.32;1.65;;;;;;;;;;4958864;28;20072;-90
2021/10/11 01:06:44;;;;;;;9.50;1.90;;;;;;;;;;4975548;28;20042;-90
2021/10/11 01:09:11;;;;;;;11.55;1.98;;;;;;;;;;4958750;28;20081;-90
2021/10/11 01:11:38;;;;;;;12.07;1.95;;;;;;;;;;4975658;28;20050;-90
2021/10/11 01:14:05;;;;;;;11.10;2.00;;;;;;;;;;4975487;28;20042;-90
2021/10/11 01:16:34;;;;;;;9.80;2.15;;;;;;;;;;4960373;28;20078;-90
2021/10/11 01:19:00;;;;;;;13.50;2.20;;;;;;;;;;4975415;28;20084;-92
2021/10/11 01:21:29;;;;;;;14.68;2.58;;;;;;;;;;4959540;28;20046;-91
2021/10/11 01:23:58;;;;;;;11.80;2.15;;;;;;;;;;4959201;28;20046;-91
2021/10/11 01:26:34;;;;;;;11.32;2.40;;;;;;;;;;4975459;28;20049;-90
2021/10/11 01:29:02;;;;;;;7.72;2.00;;;;;;;;;;4959122;28;20045;-93
2021/10/11 01:31:28;;;;;;;13.30;2.38;;;;;;;;;;4959767;28;20185;-92
2021/10/11 01:33:55;;;;;;;11.05;2.10;;;;;;;;;;4959480;28;20097;-91
2021/10/11 01:36:21;;;;;;;7.80;1.88;;;;;;;;;;4974636;28;20506;-90
2021/10/11 01:38:47;;;;;;;6.97;2.30;;;;;;;;;;4959247;28;20050;-90
2021/10/11 01:41:13;;;;;;;10.55;1.80;;;;;;;;;;4959342;28;20121;-90
2021/10/11 01:43:40;;;;;;;8.57;2.13;;;;;;;;;;4959554;28;20034;-90
2021/10/11 01:46:06;;;;;;;9.18;1.83;;;;;;;;;;4960046;28;20115;-90
2021/10/11 01:48:32;;;;;;;11.43;2.10;;;;;;;;;;4962985;28;20054;-90
2021/10/11 01:51:01;;;;;;;9.40;2.28;;;;;;;;;;4979244;28;20042;-92
2021/10/11 01:53:27;;;;;;;8.52;2.05;;;;;;;;;;4962857;28;20116;-90
2021/10/11 01:55:53;;;;;;;10.05;2.20;;;;;;;;;;4962719;28;20045;-90
2021/10/11 01:58:19;;;;;;;10.38;1.75;;;;;;;;;;4961257;28;20042;-90
2021/10/11 02:00:45;;;;;;;6.00;1.77;;;;;;;;;;4978805;28;20047;-90
2021/10/11 02:03:12;;;;;;;11.98;2.33;;;;;;;;;;4978385;28;20069;-91
2021/10/11 02:05:38;;;;;;;13.82;2.13;;;;;;;;;;4962285;28;20050;-90
2021/10/11 02:08:04;;;;;;;12.98;2.30;;;;;;;;;;4966129;28;20130;-90
2021/10/11 02:10:31;;;;;;;12.15;2.17;;;;;;;;;;4956811;28;20053;-91
2021/10/11 02:13:00;;;;;;;9.50;2.00;;;;;;;;;;4956438;28;20467;-90
2021/10/11 02:15:27;;;;;;;10.30;2.00;;;;;;;;;;4975094;28;20089;-91
2021/10/11 02:17:53;;;;;;;8.80;1.83;;;;;;;;;;4962057;28;20081;-91
2021/10/11 02:20:19;;;;;;;8.35;2.22;;;;;;;;;;4961450;28;20058;-90
2021/10/11 02:22:45;;;;;;;8.95;1.95;;;;;;;;;;4961498;28;20087;-91
2021/10/11 02:25:12;;;;;;;9.23;1.73;;;;;;;;;;4960917;28;20125;-89
2021/10/11 02:27:39;;;;;;;9.90;2.15;;;;;;;;;;4961793;28;20489;-90
2021/10/11 02:30:07;;;;;;;11.00;2.40;;;;;;;;;;4961658;28;20050;-90
2021/10/11 02:32:33;;;;;;;11.38;2.15;;;;;;;;;;4978267;28;20094;-90
2021/10/11 02:35:04;;;;;;;9.55;1.92;;;;;;;;;;4961911;28;20043;-92
2021/10/11 02:37:30;;;;;;;10.70;2.05;;;;;;;;;;4978354;28;20047;-89
2021/10/11 02:39:58;;;;;;;7.43;1.95;;;;;;;;;;4977335;28;20050;-89
2021/10/11 02:42:24;;;;;;;10.63;2.00;;;;;;;;;;4961593;28;20065;-91
2021/10/11 02:44:51;;;;;;;9.30;2.10;;;;;;;;;;4961736;28;20046;-89
2021/10/11 02:47:20;;;;;;;7.68;2.00;;;;;;;;;;4960795;28;20125;-89
2021/10/11 02:49:46;;;;;;;10.63;1.90;;;;;;;;;;4961697;28;20129;-89
2021/10/11 02:52:12;;;;;;;7.70;1.73;;;;;;;;;;4961221;28;20078;-92
2021/10/11 02:54:38;;;;;;;9.57;2.38;;;;;;;;;;4961597;28;20085;-89
2021/10/11 02:57:05;;;;;;;9.48;2.00;;;;;;;;;;4975899;28;20073;-90
2021/10/11 02:59:32;;;;;;;8.48;2.28;;;;;;;;;;4960897;28;20499;-89
2021/10/11 03:01:58;;;;;;;8.07;1.83;;;;;;;;;;4961336;28;20047;-90
2021/10/11 03:04:24;;;;;;;9.55;2.10;;;;;;;;;;4963612;28;20054;-91
2021/10/11 03:06:50;;;;;;;11.23;1.85;;;;;;;;;;4961519;28;20446;-90
2021/10/11 03:09:16;;;;;;;9.35;2.45;;;;;;;;;;4960716;28;20057;-90
2021/10/11 03:11:42;;;;;;;9.73;2.10;;;;;;;;;;4961142;28;20381;-90
2021/10/11 03:14:08;;;;;;;10.05;1.85;;;;;;;;;;4968597;28;20045;-89
2021/10/11 03:16:34;;;;;;;11.52;2.03;;;;;;;;;;4968293;28;20058;-90
2021/10/11 03:19:01;;;;;;;8.80;2.00;;;;;;;;;;4966722;28;20115;-92
2021/10/11 03:21:27;;;;;;;12.25;1.80;;;;;;;;;;4968457;28;20046;-90
2021/10/11 03:23:53;;;;;;;12.00;2.20;;;;;;;;;;4948794;28;20053;-91
2021/10/11 03:26:22;;;;;;;13.68;2.08;;;;;;;;;;4977248;28;20042;-90
2021/10/11 03:28:48;;;;;;;13.10;2.30;;;;;;;;;;4961784;28;20438;-90
2021/10/11 03:31:14;;;;;;;12.35;1.98;;;;;;;;;;4960403;28;20061;-89
2021/10/11 03:33:41;;;;;;;11.27;1.83;;;;;;;;;;4960319;28;20398;-90
2021/10/11 03:36:08;;;;;;;10.00;2.10;;;;;;;;;;4959683;28;20541;-90
2021/10/11 03:38:34;;;;;;;10.93;2.00;;;;;;;;;;4959161;28;20490;-91
2021/10/11 03:41:00;;;;;;;10.77;2.20;;;;;;;;;;4976236;28;20102;-92
2021/10/11 03:43:26;;;;;;;9.15;2.00;;;;;;;;;;4959484;28;20050;-89
2021/10/11 03:45:55;;;;;;;8.63;1.92;;;;;;;;;;4960514;28;20068;-91
2021/10/11 03:48:21;;;;;;;10.90;2.30;;;;;;;;;;4959806;28;20136;-89
2021/10/11 03:50:47;;;;;;;11.88;2.30;;;;;;;;;;4960179;28;20046;-89
2021/10/11 03:53:14;;;;;;;8.75;2.05;;;;;;;;;;4959702;28;20046;-92
2021/10/11 03:55:41;;;;;;;15.85;3.10;;;;;;;;;;4976588;28;20053;-92
2021/10/11 03:58:07;;;;;;;13.27;2.30;;;;;;;;;;4959655;28;20046;-90
2021/10/11 04:00:34;;;;;;;11.13;2.40;;;;;;;;;;4975897;28;20519;-91
2021/10/11 04:03:03;;;;;;;10.60;2.47;;;;;;;;;;4960134;28;20511;-89
2021/10/11 04:05:29;;;;;;;10.90;2.30;;;;;;;;;;4959935;28;20185;-90
2021/10/11 04:08:03;;;;;;;9.85;2.25;;;;;;;;;;4960277;28;20204;-89
2021/10/11 04:10:34;;;;;;;10.32;2.45;;;;;;;;;;4960332;28;20046;-89
2021/10/11 04:13:03;;;;;;;17.13;2.67;;;;;;;;;;4960478;28;20073;-90
2021/10/11 04:15:30;;;;;;;11.95;2.28;;;;;;;;;;4976025;28;20085;-90
2021/10/11 04:17:56;;;;;;;9.82;2.13;;;;;;;;;;4960468;28;20038;-89
2021/10/11 04:20:27;;;;;;;13.50;2.25;;;;;;;;;;4975264;28;20038;-90
2021/10/11 04:22:53;;;;;;;7.88;2.42;;;;;;;;;;4960112;28;20052;-89
2021/10/11 04:25:19;;;;;;;9.60;2.60;;;;;;;;;;4958996;28;20046;-88
2021/10/11 04:27:45;;;;;;;13.25;2.60;;;;;;;;;;4976174;28;20050;-91
2021/10/11 04:30:12;;;;;;;12.52;2.45;;;;;;;;;;4959590;28;20093;-90
2021/10/11 04:32:38;;;;;;;12.85;2.30;;;;;;;;;;4975897;28;20049;-90
2021/10/11 04:35:04;;;;;;;9.57;2.45;;;;;;;;;;4975136;28;20133;-91
2021/10/11 04:37:30;;;;;;;11.82;2.67;;;;;;;;;;4959186;28;20050;-90
2021/10/11 04:39:56;;;;;;;8.98;2.30;;;;;;;;;;4974546;28;20181;-90
2021/10/11 04:42:22;;;;;;;11.25;2.63;;;;;;;;;;4958558;28;20129;-90
2021/10/11 04:44:48;;;;;;;11.32;2.55;;;;;;;;;;4972510;28;20069;-89
2021/10/11 04:47:14;;;;;;;10.93;2.47;;;;;;;;;;4974199;28;20100;-90
2021/10/11 04:49:40;;;;;;;10.73;2.53;;;;;;;;;;4958591;28;20390;-89
2021/10/11 04:52:07;;;;;;;13.90;3.13;;;;;;;;;;4969019;28;20526;-90
2021/10/11 04:54:33;;;;;;;11.57;2.80;;;;;;;;;;4969353;28;20070;-89
2021/10/11 04:56:59;;;;;;;12.88;3.03;;;;;;;;;;4976885;28;20058;-93
2021/10/11 04:59:25;;;;;;;9.15;2.55;;;;;;;;;;4969784;28;20144;-96
2021/10/11 05:01:51;;;;;;;10.73;2.30;;;;;;;;;;4965024;28;20050;-95
2021/10/11 05:04:17;;;;;;;12.23;2.83;;;;;;;;;;4972605;28;20149;-92
2021/10/11 05:06:43;;;;;;;11.40;2.90;;;;;;;;;;4960194;28;20414;-94
2021/10/11 05:09:09;;;;;;;10.10;2.92;;;;;;;;;;4962899;28;20046;-95
2021/10/11 05:11:35;;;;;;;11.85;2.47;;;;;;;;;;4984763;28;20054;-95
2021/10/11 05:14:01;;;;;;;12.02;2.63;;;;;;;;;;4966628;28;20507;-93
2021/10/11 05:16:28;;;;;;;12.43;3.15;;;;;;;;;;4964572;28;20046;-96
2021/10/11 05:18:54;;;;;;;11.93;3.20;;;;;;;;;;4969881;28;20053;-94
2021/10/11 05:21:21;;;;;;;14.60;3.20;;;;;;;;;;4971045;28;20050;-94
2021/10/11 05:23:47;;;;;;;11.32;2.97;;;;;;;;;;4975757;28;20454;-96
2021/10/11 05:26:14;;;;;;;13.57;2.60;;;;;;;;;;4950991;28;20049;-94
2021/10/11 05:28:40;;;;;;;9.13;2.90;;;;;;;;;;4956765;28;20505;-95
2021/10/11 05:31:07;;;;;;;11.38;2.55;;;;;;;;;;4955446;28;20061;-91
2021/10/11 05:33:34;;;;;;;10.60;2.83;;;;;;;;;;4965642;28;20050;-90
2021/10/11 05:36:01;;;;;;;13.75;2.70;;;;;;;;;;4944979;28;20369;-91
2021/10/11 05:38:27;;;;;;;16.05;3.10;;;;;;;;;;4955602;28;20732;-91
2021/10/11 05:40:55;;;;;;;10.30;3.28;;;;;;;;;;4963985;28;20521;-90
2021/10/11 05:43:21;;;;;;;14.40;3.08;;;;;;;;;;4979598;28;20042;-90
2021/10/11 05:45:47;;;;;;;11.68;2.95;;;;;;;;;;4979619;28;20042;-91
2021/10/11 05:48:14;;;;;;;15.10;2.83;;;;;;;;;;4978898;28;20140;-90
2021/10/11 05:50:40;;;;;;;12.00;3.03;;;;;;;;;;4963220;28;20384;-90
2021/10/11 05:53:06;;;;;;;10.77;2.92;;;;;;;;;;4978984;28;20399;-91
2021/10/11 05:55:32;;;;;;;9.30;2.75;;;;;;;;;;4963291;28;20087;-91
2021/10/11 05:57:58;;;;;;;9.82;2.85;;;;;;;;;;4963107;28;20133;-90
2021/10/11 06:00:24;;;;;;;12.63;2.72;;;;;;;;;;4978301;28;20050;-90
2021/10/11 06:02:51;;;;;;;11.98;2.90;;;;;;;;;;4979306;28;20097;-90
2021/10/11 06:05:17;;;;;;;12.63;2.70;;;;;;;;;;4978287;28;20780;-91
2021/10/11 06:07:43;;;;;;;13.88;3.13;;;;;;;;;;4979077;28;20053;-91
2021/10/11 06:10:09;;;;;;;17.20;3.88;;;;;;;;;;4978991;28;20130;-90
2021/10/11 06:12:35;;;;;;;11.32;2.55;;;;;;;;;;4979257;28;20039;-90
2021/10/11 06:15:01;;;;;;;12.75;2.90;;;;;;;;;;4980380;28;20050;-89
2021/10/11 06:17:30;;;;;;;13.52;3.05;;;;;;;;;;4978753;28;20046;-92
2021/10/11 06:19:56;;;;;;;11.32;2.70;;;;;;;;;;4978424;28;20042;-89
2021/10/11 06:22:22;;;;;;;15.07;3.58;;;;;;;;;;4978062;28;20050;-92
2021/10/11 06:24:49;;;;;;;13.35;3.05;;;;;;;;;;4978729;28;20050;-90
2021/10/11 06:27:15;;;;;;;15.82;3.65;;;;;;;;;;4977293;28;20483;-89
2021/10/11 06:29:41;;;;;;;10.85;3.55;;;;;;;;;;4962098;28;20046;-90
2021/10/11 06:32:07;;;;;;;13.55;3.17;;;;;;;;;;4978003;28;20050;-90
2021/10/11 06:34:40;;;;;;;14.02;2.97;;;;;;;;;;4963498;28;20050;-94
2021/10/11 06:37:09;;;;;;;11.93;2.85;;;;;;;;;;4978798;28;20077;-93
2021/10/11 06:39:45;;;;;;;;;;;;;;;;;;;;;
2021/10/11 06:42:11;;;;;;;10.57;2.67;;;;;;;;;;4988316;28;20098;-95
2021/10/11 06:44:37;;;;;;;13.05;3.00;;;;;;;;;;4964024;28;20133;-95
2021/10/11 06:47:03;;;;;;;12.52;3.10;;;;;;;;;;4977103;28;20050;-95
2021/10/11 06:49:30;;;;;;;12.32;3.25;;;;;;;;;;4978723;28;20529;-94
2021/10/11 06:51:56;;;;;;;13.75;2.60;;;;;;;;;;4979240;28;20082;-93
2021/10/11 06:54:22;;;;;;;11.40;2.83;;;;;;;;;;4985834;28;20100;-94
2021/10/11 06:56:48;;;;;;;10.02;2.53;;;;;;;;;;4985834;28;20042;-94
2021/10/11 06:59:14;;;;;;;11.32;2.60;;;;;;;;;;4963935;28;20054;-96
2021/10/11 07:01:43;;;;;;;13.98;2.90;;;;;;;;;;4960654;28;20126;-96
2021/10/11 07:04:09;;;;;;;10.93;2.50;;;;;;;;;;4962444;28;20054;-93
2021/10/11 07:06:35;;;;;;;10.82;2.40;;;;;;;;;;4973458;28;20038;-91
2021/10/11 07:09:02;;;;;;;10.77;2.60;;;;;;;;;;4977900;28;20050;-91
2021/10/11 07:11:28;;;;;;;9.27;2.60;;;;;;;;;;4977473;28;20618;-92
2021/10/11 07:13:54;;;;;;;8.77;2.67;;;;;;;;;;4974823;28;20043;-95
2021/10/11 07:16:20;;;;;;;13.68;2.50;;;;;;;;;;4959850;28;20108;-95
2021/10/11 07:18:46;;;;;;;11.43;2.58;;;;;;;;;;4943815;28;20046;-94
2021/10/11 07:21:12;;;;;;;10.60;2.40;;;;;;;;;;4942904;28;20204;-94
2021/10/11 07:23:38;;;;;;;14.70;2.97;;;;;;;;;;4964684;28;20069;-95
2021/10/11 07:26:06;;;;;;;11.68;2.90;;;;;;;;;;4954516;28;20039;-93
2021/10/11 07:28:32;;;;;;;10.93;2.88;;;;;;;;;;4945529;28;20051;-93
2021/10/11 07:30:58;;;;;;;10.93;2.53;;;;;;;;;;4958803;28;20085;-92
2021/10/11 07:33:25;;;;;;;14.38;2.67;;;;;;;;;;4964573;28;20042;-93
2021/10/11 07:35:51;;;;;;;14.88;2.90;;;;;;;;;;4966091;28;20054;-94
2021/10/11 07:38:18;;;;;;;11.18;2.70;;;;;;;;;;4982397;28;20125;-93
2021/10/11 07:40:44;;;;;;;14.70;2.90;;;;;;;;;;4975619;28;20078;-92
2021/10/11 07:43:10;;;;;;;11.43;2.80;;;;;;;;;;4978863;28;20050;-93
2021/10/11 07:45:36;;;;;;;9.90;2.50;;;;;;;;;;4963142;28;20136;-92
2021/10/11 07:48:02;;;;;;;11.60;2.80;;;;;;;;;;4963395;28;20112;-94
2021/10/11 07:50:29;;;;;;;13.40;2.70;;;;;;;;;;4977948;28;20043;-94
2021/10/11 07:52:55;;;;;;;11.63;2.03;;;;;;;;;;4978443;28;20161;-93
2021/10/11 07:55:22;;;;;;;9.45;2.38;;;;;;;;;;4976943;28;20140;-93
2021/10/11 07:57:48;;;;;;;12.63;2.55;;;;;;;;;;4974651;28;20049;-93
2021/10/11 08:00:18;;;;;;;10.85;2.58;;;;;;;;;;4978607;28;20415;-94
2021/10/11 08:02:45;;;;;;;10.00;2.22;;;;;;;;;;4963066;28;20517;-95
2021/10/11 08:05:13;;;;;;;8.57;2.20;;;;;;;;;;4977575;28;20129;-95
2021/10/11 08:07:39;;;;;;;12.35;2.20;;;;;;;;;;4978876;28;20050;-94
2021/10/11 08:10:06;;;;;;;12.68;2.83;;;;;;;;;;4983477;28;20061;-94
2021/10/11 08:12:32;;;;;;;9.93;2.70;;;;;;;;;;4980649;28;20054;-93
2021/10/11 08:14:59;;;;;;;7.65;2.00;;;;;;;;;;4980293;28;20069;-95
2021/10/11 08:17:25;;;;;;;8.70;2.00;;;;;;;;;;4977582;28;20042;-94
2021/10/11 08:19:51;;;;;;;11.25;2.10;;;;;;;;;;4979711;28;20050;-94
2021/10/11 08:22:21;;;;;;;12.23;2.05;;;;;;;;;;4980215;28;20054;-96
2021/10/11 08:24:48;;;;;;;9.00;1.83;;;;;;;;;;4981487;28;20045;-94
2021/10/11 08:27:17;;;;;;;12.98;2.08;;;;;;;;;;4967901;28;20359;-94
2021/10/11 08:29:53;;;;;;;14.55;2.10;;;;;;;;;;4944630;28;20055;-96
2021/10/11 08:32:21;;;;;;;8.95;1.67;;;;;;;;;;4943623;28;20051;-94
2021/10/11 08:34:47;;;;;;;9.50;1.55;;;;;;;;;;4945985;28;20102;-96
2021/10/11 08:37:21;;;;;;;12.88;2.30;;;;;;;;;;4959932;28;20060;-93
2021/10/11 08:39:49;;;;;;;11.05;1.85;;;;;;;;;;5091459;23;20065;-94
2021/10/11 08:42:18;;;;;;;10.90;1.85;;;;;;;;;;4971274;28;20047;-95
2021/10/11 08:44:45;;;;;;;12.48;2.10;;;;;;;;;;5069181;23;20058;-93
2021/10/11 08:47:12;;;;;;;11.27;1.80;;;;;;;;;;5181299;23;20054;-94
2021/10/11 08:50:03;;;;;;;9.85;1.60;;;;;;;;;;3726676;23;20266;-93
2021/10/11 08:52:30;;;;;;;10.77;1.70;;;;;;;;;;5348532;23;20054;-94
2021/10/11 08:55:00;;;;;;;10.32;1.50;;;;;;;;;;5117055;23;20045;-93
2021/10/11 08:57:33;;;;;;;10.05;1.83;;;;;;;;;;5483588;23;20021;-96
2021/10/11 09:00:19;;;;;;;6.72;1.30;;;;;;;;;;5443167;23;20047;-93
2021/10/11 09:02:58;;;;;;;7.07;1.30;;;;;;;;;;4944778;28;20051;-91
2021/10/11 09:05:25;;;;;;;10.50;1.38;;;;;;;;;;4939488;28;20073;-90
2021/10/11 09:07:58;;;;;;;7.00;1.77;;;;;;;;;;4955401;28;20045;-90
2021/10/11 09:10:24;;;;;;;7.75;1.80;;;;;;;;;;4938772;28;20061;-90
2021/10/11 09:12:50;;;;;;;10.60;1.55;;;;;;;;;;4954999;28;20141;-91
2021/10/11 09:15:16;;;;;;;7.88;1.45;;;;;;;;;;4953676;28;20049;-90
2021/10/11 09:17:50;;;;;;;7.88;1.40;;;;;;;;;;4938917;28;20062;-89
2021/10/11 09:20:18;;;;;;;8.00;1.77;;;;;;;;;;4938149;28;20047;-90
2021/10/11 09:22:48;;;;;;;6.03;1.27;;;;;;;;;;4941941;28;20078;-95
2021/10/11 09:25:31;;;;;;;6.13;1.25;;;;;;;;;;4949360;28;20069;-95
2021/10/11 09:28:00;;;;;;;9.18;1.83;;;;;;;;;;4957307;28;20047;-95
2021/10/11 09:30:36;;;;;;;7.15;1.50;;;;;;;;;;4954225;28;20038;-96
2021/10/11 09:33:10;;;;;;;5.97;1.23;;;;;;;;;;4995972;23;20057;-96
2021/10/11 09:35:37;;;;;;;4.88;1.30;;;;;;;;;;4961684;28;20129;-94
2021/10/11 09:38:17;;;;;;;7.30;1.77;;;;;;;;;;4946023;28;20053;-94
2021/10/11 09:40:44;;;;;;;5.95;1.23;;;;;;;;;;4960718;28;20488;-92
2021/10/11 09:43:17;;;;;;;7.40;1.42;;;;;;;;;;4958741;28;20050;-93
2021/10/11 09:45:44;;;;;;;5.97;1.42;;;;;;;;;;4973642;28;20511;-90
2021/10/11 09:48:10;;;;;;;3.58;1.08;;;;;;;;;;4956772;28;20074;-93
2021/10/11 09:50:37;;;;;;;8.27;1.35;;;;;;;;;;4957171;28;20051;-93
2021/10/11 09:53:04;;;;;;;5.70;1.10;;;;;;;;;;4958053;28;20260;-90
2021/10/11 09:55:32;;;;;;;5.20;1.27;;;;;;;;;;4955576;28;20049;-91
2021/10/11 09:57:58;;;;;;;6.82;1.30;;;;;;;;;;4955175;28;20051;-91
2021/10/11 10:00:25;;;;;;;6.15;1.38;;;;;;;;;;4955101;28;20102;-91
2021/10/11 10:02:53;;;;;;;6.50;1.30;;;;;;;;;;4942530;28;20051;-94
2021/10/11 10:05:24;;;;;;;6.80;1.27;;;;;;;;;;4943081;28;20086;-94
2021/10/11 10:07:51;;;;;;;7.35;1.45;;;;;;;;;;4947132;28;20134;-92
2021/10/11 10:10:23;;;;;;;4.90;1.23;;;;;;;;;;4944636;28;20054;-92
2021/10/11 10:12:50;;;;;;;6.50;1.25;;;;;;;;;;4942687;28;20109;-93
2021/10/11 10:15:27;;;;;;;9.18;2.25;;;;;;;;;;4942232;28;20101;-93
2021/10/11 10:18:04;;;;;;;7.43;1.20;;;;;;;;;;4942270;28;20054;-90
2021/10/11 10:20:31;;;;;;;6.70;1.75;;;;;;;;;;4956278;28;20652;-89
2021/10/11 10:22:58;;;;;;;5.78;1.40;;;;;;;;;;4942766;28;20750;-90
2021/10/11 10:25:24;;;;;;;9.55;1.42;;;;;;;;;;4963631;28;20081;-89
2021/10/11 10:27:54;;;;;;;9.32;1.58;;;;;;;;;;4961657;28;20127;-91
2021/10/11 10:30:21;;;;;;;10.70;1.98;;;;;;;;;;4956472;28;20051;-88
2021/10/11 10:32:53;;;;;;;8.65;1.30;;;;;;;;;;4957258;28;20063;-88
2021/10/11 10:35:20;;;;;;;7.72;1.40;;;;;;;;;;4940758;28;20053;-88
2021/10/11 10:37:46;;;;;;;9.52;1.58;;;;;;;;;;4940004;28;20446;-88
2021/10/11 10:40:14;;;;;;;8.00;1.40;;;;;;;;;;4956414;28;20047;-88
2021/10/11 10:42:40;;;;;;;5.90;1.00;;;;;;;;;;4941344;28;20047;-88
2021/10/11 10:45:17;;;;;;;3.38;1.00;;;;;;;;;;4957322;28;20057;-89
2021/10/11 10:47:43;;;;;;;8.73;1.65;;;;;;;;;;4957677;28;20050;-89
2021/10/11 10:50:13;;;;;;;6.40;1.20;;;;;;;;;;4957254;28;20061;-89
2021/10/11 10:52:39;;;;;;;10.80;1.52;;;;;;;;;;4957899;28;20043;-89
2021/10/11 10:55:05;;;;;;;7.75;1.90;;;;;;;;;;4957456;28;20380;-89
2021/10/11 10:57:32;;;;;;;5.28;1.02;;;;;;;;;;4955878;28;20039;-88
2021/10/11 11:00:00;;;;;;;5.57;1.10;;;;;;;;;;4956662;28;20076;-89
2021/10/11 11:02:27;;;;;;;4.88;1.10;;;;;;;;;;4956272;28;20491;-93
2021/10/11 11:04:56;;;;;;;6.57;0.90;;;;;;;;;;4949371;28;20149;-92
2021/10/11 11:07:26;;;;;;;4.78;1.00;;;;;;;;;;4949217;28;20525;-93
2021/10/11 11:09:53;;;;;;;7.45;1.27;;;;;;;;;;4941831;28;20066;-92
2021/10/11 11:12:27;;;;;;;3.75;0.90;;;;;;;;;;4941727;28;20043;-91
2021/10/11 11:14:53;;;;;;;3.15;0.75;;;;;;;;;;4941968;28;20058;-91
2021/10/11 11:17:27;;;;;;;4.15;0.98;;;;;;;;;;4956912;28;20113;-90
2021/10/11 11:19:53;;;;;;;4.00;0.85;;;;;;;;;;4957538;28;20539;-91
2021/10/11 11:22:27;;;;;;;5.20;1.05;;;;;;;;;;4940737;28;20641;-91
2021/10/11 11:24:53;;;;;;;4.80;0.90;;;;;;;;;;4938344;29;20047;-91
2021/10/11 11:27:29;;;;;;;7.47;1.08;;;;;;;;;;4960616;28;20038;-92
2021/10/11 11:29:59;;;;;;;6.28;1.10;;;;;;;;;;4958097;28;20105;-91
2021/10/11 11:32:25;;;;;;;8.02;1.08;;;;;;;;;;4956747;28;20055;-90
2021/10/11 11:34:52;;;;;;;4.85;1.00;;;;;;;;;;4957421;28;20051;-91
2021/10/11 11:37:18;;;;;;;5.10;0.93;;;;;;;;;;4956339;28;20077;-92
2021/10/11 11:39:44;;;;;;;4.88;0.88;;;;;;;;;;4956285;28;20050;-91
2021/10/11 11:42:10;;;;;;;4.95;0.88;;;;;;;;;;4957141;28;20039;-92
2021/10/11 11:44:36;;;;;;;3.75;0.95;;;;;;;;;;4957693;28;20098;-92
2021/10/11 11:47:07;;;;;;;2.35;0.80;;;;;;;;;;4957473;28;20046;-91
2021/10/11 11:49:35;;;;;;;3.40;1.00;;;;;;;;;;4956098;28;20046;-91
2021/10/11 11:52:14;;;;;;;4.40;0.85;;;;;;;;;;4957522;28;20050;-92
2021/10/11 11:54:52;;;;;;;6.22;0.95;;;;;;;;;;4956818;28;20093;-91
2021/10/11 11:57:19;;;;;;;4.70;1.00;;;;;;;;;;4945990;28;20496;-90
2021/10/11 11:59:45;;;;;;;5.35;1.45;;;;;;;;;;4940037;28;20504;-91
2021/10/11 12:02:14;;;;;;;5.43;0.80;;;;;;;;;;4956309;28;20100;-92
2021/10/11 12:04:44;;;;;;;8.95;1.50;;;;;;;;;;4940447;28;20104;-91
2021/10/11 12:07:11;;;;;;;5.53;1.08;;;;;;;;;;4940493;28;20043;-91
2021/10/11 12:09:37;;;;;;;5.65;0.90;;;;;;;;;;4955399;28;20046;-91
2021/10/11 12:12:04;;;;;;;3.88;1.05;;;;;;;;;;4940477;28;20050;-92
2021/10/11 12:14:30;;;;;;;8.27;1.20;;;;;;;;;;4939323;28;20046;-88
2021/10/11 12:17:04;;;;;;;7.65;1.10;;;;;;;;;;4937019;28;20097;-91
2021/10/11 12:19:31;;;;;;;3.53;0.95;;;;;;;;;;4939693;28;20073;-90
2021/10/11 12:21:57;;;;;;;4.15;0.82;;;;;;;;;;4956416;28;20042;-90
2021/10/11 12:24:24;;;;;;;4.18;0.90;;;;;;;;;;4955228;28;20050;-90
2021/10/11 12:26:52;;;;;;;4.43;0.80;;;;;;;;;;4956219;28;20054;-91
2021/10/11 12:29:21;;;;;;;6.07;1.02;;;;;;;;;;4954984;28;20138;-92
2021/10/11 12:32:01;;;;;;;4.03;0.73;;;;;;;;;;4956077;28;20069;-91
2021/10/11 12:34:29;;;;;;;2.42;0.60;;;;;;;;;;4955711;28;20047;-91
2021/10/11 12:36:55;;;;;;;6.10;0.93;;;;;;;;;;4956391;28;20117;-91
2021/10/11 12:39:28;;;;;;;4.25;0.75;;;;;;;;;;4954121;28;20057;-91
2021/10/11 12:41:54;;;;;;;3.85;0.90;;;;;;;;;;4955999;28;20043;-90
2021/10/11 12:44:25;;;;;;;3.85;0.73;;;;;;;;;;4955736;28;20090;-90
2021/10/11 12:46:51;;;;;;;4.03;0.80;;;;;;;;;;4956752;28;20134;-89
2021/10/11 12:49:18;;;;;;;8.57;1.10;;;;;;;;;;4956893;28;20050;-87
2021/10/11 12:51:50;;;;;;;5.50;0.93;;;;;;;;;;4959291;28;20061;-93
2021/10/11 12:54:17;;;;;;;4.03;0.80;;;;;;;;;;4958785;28;20045;-96
2021/10/11 12:56:50;;;;;;;4.93;0.98;;;;;;;;;;4954056;28;20054;-92
2021/10/11 12:59:18;;;;;;;4.60;0.80;;;;;;;;;;4958711;28;20598;-93
2021/10/11 13:01:44;;;;;;;2.63;0.77;;;;;;;;;;4943406;28;20051;-93
2021/10/11 13:04:10;;;;;;;3.58;0.68;;;;;;;;;;4958308;28;20157;-94
2021/10/11 13:06:37;;;;;;;3.33;0.70;;;;;;;;;;4944301;28;20113;-92
2021/10/11 13:09:04;;;;;;;5.20;1.08;;;;;;;;;;4961846;28;20082;-95
2021/10/11 13:11:30;;;;;;;3.92;0.82;;;;;;;;;;4943230;28;20047;-95
2021/10/11 13:13:57;;;;;;;2.97;0.90;;;;;;;;;;4946552;28;20100;-94
2021/10/11 13:16:24;;;;;;;4.13;0.82;;;;;;;;;;4945034;28;20047;-94
2021/10/11 13:18:50;;;;;;;2.92;0.77;;;;;;;;;;4944700;28;20651;-95
2021/10/11 13:21:16;;;;;;;4.78;1.17;;;;;;;;;;4958224;28;20051;-90
2021/10/11 13:23:43;;;;;;;6.50;1.45;;;;;;;;;;4945279;28;20142;-93
2021/10/11 13:26:10;;;;;;;4.20;0.70;;;;;;;;;;4939436;28;20043;-89
2021/10/11 13:28:45;;;;;;;3.65;0.77;;;;;;;;;;4955819;28;20133;-90
2021/10/11 14:28:12;;;;;;;4.05;0.90;;;;;;;;;;4957682;28;20043;-92
2021/10/11 14:30:44;;;;;;;4.55;1.17;;;;;;;;;;4957912;28;20078;-93
2021/10/11 16:01:31;;;;;;;6.28;1.25;;;;;;;;;;4967451;28;20047;-90
2021/10/11 16:03:57;;;;;;;10.18;1.58;;;;;;;;;;4949233;28;20051;-92
2021/10/11 16:06:24;;;;;;;7.80;1.63;;;;;;;;;;4945604;28;20043;-92
2021/10/11 16:08:51;;;;;;;9.27;1.55;;;;;;;;;;4966110;28;20146;-92
2021/10/11 16:11:17;;;;;;;7.75;1.48;;;;;;;;;;4947360;28;20058;-90
2021/10/11 16:13:43;;;;;;;8.25;1.50;;;;;;;;;;4949678;28;20070;-92
2021/10/11 16:16:10;;;;;;;14.27;2.05;;;;;;;;;;4947651;28;21169;-91
2021/10/11 16:18:36;;;;;;;7.30;1.42;;;;;;;;;;4949827;28;20098;-93
2021/10/11 16:21:04;;;;;;;4.97;1.42;;;;;;;;;;4949536;28;20097;-92
2021/10/11 16:23:32;;;;;;;8.68;1.45;;;;;;;;;;4948895;28;20059;-91
2021/10/11 16:25:58;;;;;;;12.05;1.80;;;;;;;;;;4945136;28;20053;-91
2021/10/11 16:28:24;;;;;;;8.18;1.30;;;;;;;;;;4946756;28;20058;-92
2021/10/11 16:30:50;;;;;;;4.78;1.23;;;;;;;;;;4934211;28;20133;-93
2021/10/11 16:33:17;;;;;;;12.57;1.50;;;;;;;;;;4943530;29;20059;-92
2021/10/11 16:35:44;;;;;;;8.15;1.40;;;;;;;;;;4929759;29;20051;-92
2021/10/11 16:38:10;;;;;;;9.95;1.30;;;;;;;;;;4940114;29;20084;-93
2021/10/11 16:40:36;;;;;;;8.50;1.98;;;;;;;;;;4935225;29;20145;-91
2021/10/11 16:43:03;;;;;;;11.20;2.63;;;;;;;;;;4943628;29;20195;-93
2021/10/11 16:45:29;;;;;;;6.20;1.15;;;;;;;;;;4944134;29;20050;-94
2021/10/11 16:47:56;;;;;;;5.35;1.20;;;;;;;;;;4934844;29;20047;-92
2021/10/11 16:50:22;;;;;;;5.63;1.20;;;;;;;;;;4943586;29;20127;-89
2021/10/11 16:52:49;;;;;;;5.90;1.20;;;;;;;;;;4943518;29;20054;-90
2021/10/11 16:55:15;;;;;;;6.00;1.60;;;;;;;;;;4935289;29;20039;-94
2021/10/11 16:57:42;;;;;;;7.13;1.50;;;;;;;;;;4931776;29;20047;-91
2021/10/11 17:00:13;;;;;;;4.93;1.30;;;;;;;;;;4936527;29;20055;-92
2021/10/11 17:02:40;;;;;;;7.55;1.35;;;;;;;;;;4945185;29;20524;-93
2021/10/11 17:05:06;;;;;;;6.60;1.20;;;;;;;;;;4948778;29;20103;-92